createdAt,value
2023-01-23T00:01:12.235Z,11.77
2023-01-23T00:06:07.571Z,11.93
2023-01-23T00:11:00.845Z,10.60
2023-01-23T00:15:55.441Z,10.98
2023-01-23T00:20:48.691Z,10.60
2023-01-23T00:25:42.013Z,13.15
2023-01-23T00:30:35.476Z,10.38
2023-01-23T00:35:35.717Z,10.55
2023-01-23T00:40:29.016Z,9.98
2023-01-23T00:45:22.244Z,9.88
2023-01-23T00:50:15.883Z,10.15
2023-01-23T00:55:11.711Z,10.57
2023-01-23T01:00:06.360Z,10.63
2023-01-23T01:04:59.803Z,10.25
2023-01-23T01:09:53.227Z,9.63
2023-01-23T01:14:47.834Z,9.68
2023-01-23T01:19:41.789Z,10.07
2023-01-23T01:24:35.205Z,10.38
2023-01-23T01:29:28.475Z,10.73
2023-01-23T01:34:23.743Z,10.88
2023-01-23T01:39:17.022Z,11.13
2023-01-23T01:44:15.989Z,10.70
2023-01-23T01:49:12.685Z,10.65
2023-01-23T01:54:13.292Z,10.20
2023-01-23T01:59:07.767Z,11.65
2023-01-23T02:04:02.208Z,12.25
2023-01-23T02:09:03.946Z,11.07
2023-01-23T02:13:59.151Z,11.73
2023-01-23T02:18:57.610Z,12.90
2023-01-23T02:24:03.182Z,11.40
2023-01-23T02:28:59.414Z,12.10
2023-01-23T02:39:04.066Z,11.35
2023-01-23T02:44:02.467Z,12.43
2023-01-23T02:48:56.189Z,12.52
2023-01-23T02:53:51.250Z,13.48
2023-01-23T02:59:02.645Z,12.48
2023-01-23T03:08:50.413Z,12.82
2023-01-23T03:13:43.670Z,12.40
2023-01-23T03:18:52.836Z,12.77
2023-01-23T03:23:48.889Z,12.88
2023-01-23T03:28:59.856Z,12.27
2023-01-23T03:33:53.902Z,12.48
2023-01-23T03:39:02.416Z,12.40
2023-01-23T03:43:57.598Z,12.60
2023-01-23T03:48:52.129Z,12.55
2023-01-23T03:53:45.623Z,11.73
2023-01-23T03:58:40.290Z,11.57
2023-01-23T04:03:33.831Z,11.73
2023-01-23T04:08:27.296Z,12.25
2023-01-23T04:13:21.300Z,12.50
2023-01-23T04:18:16.120Z,12.35
2023-01-23T04:23:09.353Z,11.13
2023-01-23T04:28:03.820Z,12.55
2023-01-23T04:32:57.230Z,12.57
2023-01-23T04:37:51.784Z,12.27
2023-01-23T04:42:45.304Z,13.15
2023-01-23T04:47:53.152Z,11.65
2023-01-23T04:52:46.504Z,12.45
2023-01-23T04:57:41.860Z,11.63
2023-01-23T05:02:47.539Z,11.60
2023-01-23T05:07:41.969Z,12.45
2023-01-23T05:12:39.541Z,11.30
2023-01-23T05:17:34.668Z,11.07
2023-01-23T05:22:28.807Z,12.07
2023-01-23T05:27:22.072Z,11.37
2023-01-23T05:32:16.994Z,13.15
2023-01-23T05:37:11.654Z,11.90
2023-01-23T05:42:07.018Z,11.05
2023-01-23T05:47:28.583Z,12.23
2023-01-23T05:52:27.279Z,11.80
2023-01-23T05:57:21.043Z,11.57
2023-01-23T06:02:32.934Z,11.10
2023-01-23T06:07:50.711Z,11.63
2023-01-23T06:12:44.110Z,12.07
2023-01-23T06:17:37.419Z,10.63
2023-01-23T06:22:31.576Z,13.03
2023-01-23T06:27:33.783Z,12.48
2023-01-23T06:32:30.594Z,13.80
2023-01-23T06:37:24.242Z,13.03
2023-01-23T06:42:17.569Z,13.53
2023-01-23T06:47:16.803Z,13.93
2023-01-23T06:52:12.376Z,13.83
2023-01-23T06:57:05.900Z,11.53
2023-01-23T07:02:00.356Z,9.07
2023-01-23T07:07:07.051Z,8.70
2023-01-23T07:12:00.561Z,9.27
2023-01-23T07:16:56.107Z,8.80
2023-01-23T07:21:51.107Z,8.53
2023-01-23T07:26:45.732Z,8.77
2023-01-23T07:31:38.950Z,8.57
2023-01-23T07:36:32.313Z,8.03
2023-01-23T07:41:25.701Z,7.67
2023-01-23T07:46:22.206Z,7.67
2023-01-23T07:51:18.185Z,7.97
2023-01-23T07:56:11.467Z,8.60
2023-01-23T08:01:09.862Z,8.43
2023-01-23T08:06:04.609Z,8.30
2023-01-23T08:10:57.894Z,9.27
2023-01-23T08:15:53.528Z,9.17
2023-01-23T08:20:54.243Z,10.10
2023-01-23T08:30:48.381Z,9.15
2023-01-23T08:35:41.558Z,8.87
2023-01-23T08:40:34.861Z,9.30
2023-01-23T08:45:29.524Z,8.10
2023-01-23T08:50:24.844Z,8.53
2023-01-23T08:55:18.195Z,8.27
2023-01-23T09:00:12.780Z,9.30
2023-01-23T09:05:08.668Z,10.23
2023-01-23T09:10:01.898Z,8.57
2023-01-23T09:14:55.079Z,8.27
2023-01-23T09:19:48.332Z,8.83
2023-01-23T09:24:42.935Z,8.47
2023-01-23T09:29:36.053Z,9.43
2023-01-23T09:34:29.347Z,8.47
2023-01-23T09:39:22.556Z,8.50
2023-01-23T09:44:21.634Z,7.73
2023-01-23T09:49:22.125Z,9.47
2023-01-23T09:54:26.818Z,8.75
2023-01-23T09:59:29.275Z,8.50
2023-01-23T10:04:23.582Z,7.47
2023-01-23T10:09:36.959Z,7.80
2023-01-23T10:14:50.936Z,7.63
2023-01-23T10:20:01.150Z,9.73
2023-01-23T10:24:56.800Z,9.90
2023-01-23T10:29:57.572Z,10.75
2023-01-23T10:34:57.314Z,10.97
2023-01-23T10:39:55.048Z,9.13
2023-01-23T10:44:48.919Z,10.87
2023-01-23T10:49:45.938Z,11.57
2023-01-23T10:54:47.492Z,10.70
2023-01-23T10:59:51.125Z,10.83
2023-01-23T11:04:48.080Z,11.70
2023-01-23T11:09:49.967Z,11.53
2023-01-23T11:14:43.078Z,11.47
2023-01-23T11:19:38.640Z,14.47
2023-01-23T11:24:41.024Z,14.53
2023-01-23T11:29:55.012Z,12.30
2023-01-23T11:34:53.205Z,12.40
2023-01-23T11:39:55.969Z,15.23
2023-01-23T11:44:52.764Z,12.83
2023-01-23T11:50:03.569Z,12.97
2023-01-23T11:55:15.024Z,11.57
2023-01-23T12:00:23.364Z,13.50
2023-01-23T12:05:48.354Z,14.97
2023-01-23T12:10:54.598Z,13.33
2023-01-23T12:16:01.741Z,13.20
2023-01-23T12:21:04.466Z,16.40
2023-01-23T12:26:08.937Z,12.13
2023-01-23T12:31:14.767Z,12.93
2023-01-23T12:36:21.934Z,12.70
2023-01-23T12:41:23.930Z,11.70
2023-01-23T12:46:21.003Z,14.40
2023-01-23T12:51:19.786Z,13.27
2023-01-23T12:56:22.289Z,14.67
2023-01-23T13:01:35.914Z,15.17
2023-01-23T13:06:47.273Z,17.20
2023-01-23T13:16:50.018Z,16.90
2023-01-23T13:22:04.910Z,15.73
2023-01-23T13:26:59.530Z,14.90
2023-01-23T13:32:24.362Z,14.47
2023-01-23T13:37:51.451Z,14.73
2023-01-23T13:42:46.254Z,13.37
2023-01-23T14:25:17.697Z,13.93
2023-01-23T14:30:19.310Z,13.15
2023-01-23T14:35:21.245Z,12.13
2023-01-23T14:40:26.580Z,12.83
2023-01-23T14:45:22.606Z,13.23
2023-01-23T14:50:20.847Z,13.23
2023-01-23T14:55:29.868Z,12.37
2023-01-23T15:00:29.908Z,12.20
2023-01-23T15:05:27.032Z,12.57
2023-01-23T15:10:24.343Z,13.37
2023-01-23T15:15:21.735Z,14.23
2023-01-23T15:20:38.797Z,13.90
2023-01-23T15:25:37.841Z,13.70
2023-01-23T15:30:38.347Z,15.27
2023-01-23T15:35:34.506Z,14.27
2023-01-23T15:40:29.766Z,14.87
2023-01-23T15:45:23.334Z,14.63
2023-01-23T15:50:17.453Z,14.83
2023-01-23T15:55:13.682Z,15.53
2023-01-23T16:00:16.072Z,13.73
2023-01-23T16:05:12.701Z,13.93
2023-01-23T16:10:19.991Z,16.13
2023-01-23T16:15:26.300Z,15.90
2023-01-23T16:20:27.691Z,16.30
2023-01-23T16:25:41.982Z,15.50
2023-01-23T16:30:37.985Z,15.17
2023-01-23T16:35:33.992Z,15.43
2023-01-23T16:40:29.067Z,15.10
2023-01-23T16:45:25.243Z,15.17
2023-01-23T16:50:24.126Z,17.40
2023-01-23T16:55:23.112Z,19.20
2023-01-23T17:00:34.104Z,21.17
2023-01-23T17:10:37.833Z,18.00
2023-01-23T17:15:38.716Z,17.73
2023-01-23T17:20:33.898Z,16.87
2023-01-23T17:25:44.978Z,16.60
2023-01-23T17:30:48.632Z,18.17
2023-01-23T17:35:46.209Z,18.00
2023-01-23T17:40:40.733Z,17.20
2023-01-23T17:45:34.811Z,17.57
2023-01-23T17:50:28.459Z,18.43
2023-01-23T17:55:25.644Z,16.90
2023-01-23T18:00:21.092Z,17.30
2023-01-23T18:05:20.766Z,16.53
2023-01-23T18:10:15.427Z,20.47
2023-01-23T18:15:16.689Z,18.73
2023-01-23T18:20:19.325Z,15.67
2023-01-23T18:25:15.916Z,19.03
2023-01-23T18:30:23.089Z,18.20
2023-01-23T18:35:30.610Z,20.00
2023-01-23T18:40:31.152Z,20.67
2023-01-23T18:45:28.114Z,17.33
2023-01-23T18:50:29.134Z,17.13
2023-01-23T18:55:29.952Z,18.00
2023-01-23T19:00:33.351Z,21.10
2023-01-23T19:05:32.960Z,19.93
2023-01-23T19:10:32.502Z,22.47
2023-01-23T19:15:34.869Z,19.90
2023-01-23T19:20:34.871Z,19.83
2023-01-23T19:25:31.644Z,19.52
2023-01-23T19:30:29.563Z,18.60
2023-01-23T19:35:25.946Z,19.80
2023-01-23T19:40:21.098Z,18.40
2023-01-23T19:45:18.156Z,17.13
2023-01-23T19:50:19.444Z,17.63
2023-01-23T19:55:25.041Z,15.50
2023-01-23T20:00:19.766Z,15.37
2023-01-23T20:05:13.504Z,14.17
2023-01-23T20:10:08.566Z,13.50
2023-01-23T20:15:03.267Z,13.50
2023-01-23T20:19:57.237Z,11.43
2023-01-23T20:24:51.589Z,11.57
2023-01-23T20:29:45.441Z,12.23
2023-01-23T20:34:40.141Z,10.73
2023-01-23T20:39:33.364Z,9.97
2023-01-23T20:44:29.649Z,11.43
2023-01-23T20:49:27.962Z,9.30
2023-01-23T20:54:22.619Z,9.27
2023-01-23T20:59:24.102Z,9.13
2023-01-23T21:04:17.426Z,8.57
2023-01-23T21:09:10.627Z,8.67
2023-01-23T21:14:05.434Z,8.90
2023-01-23T21:18:58.666Z,8.20
2023-01-23T21:23:52.550Z,7.83
2023-01-23T21:28:48.536Z,8.90
2023-01-23T21:33:44.954Z,9.20
2023-01-23T21:38:38.367Z,8.43
2023-01-23T21:43:32.330Z,8.37
2023-01-23T21:48:28.829Z,7.60
2023-01-23T21:53:23.517Z,6.67
2023-01-23T21:58:16.810Z,7.30
2023-01-23T22:03:10.069Z,7.80
2023-01-23T22:08:03.351Z,7.40
2023-01-23T22:12:58.088Z,6.73
2023-01-23T22:17:51.645Z,7.10
2023-01-23T22:22:45.012Z,6.37
2023-01-23T22:27:38.237Z,7.13
2023-01-23T22:32:33.888Z,7.37
2023-01-23T22:37:27.181Z,7.13
2023-01-23T22:42:21.128Z,7.27
2023-01-23T22:47:14.502Z,6.90
2023-01-23T22:52:09.440Z,6.10
2023-01-23T22:57:02.847Z,6.77
2023-01-23T23:01:56.101Z,6.97
2023-01-23T23:06:51.487Z,6.80
2023-01-23T23:11:49.038Z,6.93
2023-01-23T23:16:45.495Z,6.57
2023-01-23T23:21:39.171Z,6.30
2023-01-23T23:26:33.178Z,6.23
2023-01-23T23:31:28.136Z,6.00
2023-01-23T23:36:21.451Z,6.53
2023-01-23T23:41:16.060Z,5.77
2023-01-23T23:46:11.193Z,5.53
2023-01-23T23:51:07.792Z,6.87
2023-01-23T23:56:00.968Z,6.03
